Time;durP1;ratioP1;P1;durP2;ratioP2;P2;SDS_P1;SDS_P2;PMS_P1;PMS_P2;Temp;Humidity;BMP_temperature;BMP_pressure;BME280_temperature;BME280_humidity;BME280_pressure;Samples;Min_cycle;Max_cycle;Signal;HPM_P1;HPM_P2
2024/03/07 00:01:45;;;;;;;43.92;24.35;;;7.60;99.90;;;;;;4150248;28;20034;-66
2024/03/07 00:03:45;;;;;;;40.90;22.70;;;7.70;99.90;;;;;;4143079;28;20048;-65
2024/03/07 00:05:46;;;;;;;44.50;24.88;;;7.60;99.90;;;;;;4139589;28;20391;-65
2024/03/07 00:07:47;;;;;;;46.08;25.85;;;7.60;99.90;;;;;;4152792;28;20167;-65
2024/03/07 00:09:48;;;;;;;46.20;25.35;;;7.60;99.90;;;;;;4149756;28;20038;-65
2024/03/07 00:11:48;;;;;;;48.88;25.05;;;7.60;99.90;;;;;;4155482;28;20121;-65
2024/03/07 00:13:49;;;;;;;47.60;24.27;;;7.60;99.90;;;;;;4146600;28;20038;-65
2024/03/07 00:15:50;;;;;;;46.35;24.15;;;7.60;99.90;;;;;;4157251;28;20055;-65
2024/03/07 00:17:50;;;;;;;40.92;23.58;;;7.60;99.90;;;;;;4154318;28;20069;-65
2024/03/07 00:19:51;;;;;;;41.80;23.35;;;7.70;99.90;;;;;;4156059;28;20049;-65
2024/03/07 00:21:56;;;;;;;42.72;24.45;;;7.70;99.90;;;;;;4148343;28;20030;-65
2024/03/07 00:23:57;;;;;;;42.50;23.45;;;7.70;99.90;;;;;;4149740;28;20038;-65
2024/03/07 00:25:57;;;;;;;44.65;24.33;;;7.70;99.90;;;;;;4153256;28;20045;-65
2024/03/07 00:28:02;;;;;;;44.28;24.17;;;7.70;99.90;;;;;;4153395;28;20084;-65
2024/03/07 00:30:09;;;;;;;44.08;24.88;;;7.70;99.90;;;;;;4155401;28;20065;-66
2024/03/07 00:32:10;;;;;;;42.20;23.10;;;7.60;99.90;;;;;;4152230;28;20232;-65
2024/03/07 00:34:10;;;;;;;40.58;22.90;;;7.60;99.90;;;;;;4154174;28;20033;-65
2024/03/07 00:36:12;;;;;;;41.03;23.65;;;7.60;99.90;;;;;;4153679;28;20355;-65
2024/03/07 00:38:12;;;;;;;44.13;23.42;;;7.60;99.90;;;;;;4155756;28;20095;-65
2024/03/07 00:40:13;;;;;;;45.00;23.48;;;7.60;99.90;;;;;;4158356;28;20441;-65
2024/03/07 00:42:14;;;;;;;45.08;23.60;;;7.60;99.90;;;;;;4159653;28;20389;-66
2024/03/07 00:44:14;;;;;;;42.97;22.25;;;7.60;99.90;;;;;;4152779;28;20095;-66
2024/03/07 00:46:16;;;;;;;44.30;22.80;;;7.60;99.90;;;;;;4153269;28;20041;-67
2024/03/07 00:48:17;;;;;;;37.40;21.63;;;7.60;99.90;;;;;;4157366;28;20379;-65
2024/03/07 00:50:18;;;;;;;42.00;22.23;;;7.60;99.90;;;;;;4155780;28;20112;-65
2024/03/07 00:52:18;;;;;;;38.17;22.45;;;7.60;99.90;;;;;;4156891;28;20543;-66
2024/03/07 00:54:19;;;;;;;41.70;22.17;;;7.60;99.90;;;;;;4160109;28;20021;-66
2024/03/07 00:56:21;;;;;;;40.58;22.90;;;7.60;99.90;;;;;;4158466;28;20029;-65
2024/03/07 00:58:21;;;;;;;40.70;22.77;;;7.60;99.90;;;;;;4158901;28;20481;-65
2024/03/07 01:00:22;;;;;;;43.20;22.60;;;7.70;99.90;;;;;;4152342;28;20040;-65
2024/03/07 01:02:23;;;;;;;44.17;24.27;;;7.70;99.90;;;;;;4156139;28;20142;-59
2024/03/07 01:04:24;;;;;;;46.25;23.08;;;7.70;99.90;;;;;;4162163;28;20064;-59
2024/03/07 01:06:25;;;;;;;39.45;21.35;;;7.70;99.90;;;;;;4151463;28;20048;-59
2024/03/07 01:08:27;;;;;;;40.72;22.92;;;7.70;99.90;;;;;;4153656;28;20046;-59
2024/03/07 01:10:28;;;;;;;43.00;23.33;;;7.70;99.90;;;;;;4154519;28;20121;-59
2024/03/07 01:12:30;;;;;;;39.85;22.52;;;7.70;99.90;;;;;;4149175;28;20034;-59
2024/03/07 01:14:32;;;;;;;41.05;22.58;;;7.70;99.90;;;;;;4152955;28;20121;-59
2024/03/07 01:16:32;;;;;;;46.30;24.02;;;7.70;99.90;;;;;;4154843;28;20046;-59
2024/03/07 01:18:33;;;;;;;39.78;21.63;;;7.70;99.90;;;;;;4151915;28;20379;-59
2024/03/07 01:20:35;;;;;;;41.05;21.85;;;7.70;99.90;;;;;;4142446;28;20121;-59
2024/03/07 01:22:36;;;;;;;43.40;22.88;;;7.70;99.90;;;;;;4145193;28;20033;-59
2024/03/07 01:24:37;;;;;;;45.65;22.98;;;7.60;99.90;;;;;;4142472;28;20073;-59
2024/03/07 01:26:38;;;;;;;48.25;25.17;;;7.50;99.90;;;;;;4134233;28;20550;-59
2024/03/07 01:28:38;;;;;;;49.35;25.63;;;7.30;99.90;;;;;;4139336;28;20049;-59
2024/03/07 01:30:39;;;;;;;46.28;25.23;;;7.20;99.90;;;;;;4151396;28;20124;-59
2024/03/07 01:32:39;;;;;;;44.20;24.38;;;7.20;99.90;;;;;;4155211;28;20557;-59
2024/03/07 01:34:40;;;;;;;46.33;25.67;;;7.10;99.90;;;;;;4154199;28;20030;-59
2024/03/07 01:36:41;;;;;;;42.83;23.80;;;7.00;99.90;;;;;;4152324;28;20034;-59
2024/03/07 01:38:42;;;;;;;46.90;25.40;;;7.00;99.90;;;;;;4152208;28;20121;-59
2024/03/07 01:40:43;;;;;;;51.67;26.80;;;6.90;99.90;;;;;;4156289;28;20080;-58
2024/03/07 01:42:48;;;;;;;47.90;25.75;;;6.90;99.90;;;;;;4159927;28;20550;-59
2024/03/07 01:44:48;;;;;;;52.20;28.10;;;6.80;99.90;;;;;;4154651;28;20061;-59
2024/03/07 01:46:50;;;;;;;47.85;26.10;;;6.80;99.90;;;;;;4146654;28;20033;-59
2024/03/07 01:48:51;;;;;;;47.22;25.45;;;6.70;99.90;;;;;;4143380;28;20143;-59
2024/03/07 01:50:52;;;;;;;44.97;25.00;;;6.70;99.90;;;;;;4155390;28;20584;-59
2024/03/07 01:52:55;;;;;;;45.88;23.70;;;6.70;99.90;;;;;;4154934;28;20045;-59
2024/03/07 01:54:56;;;;;;;47.83;25.20;;;6.60;99.90;;;;;;4160617;28;20033;-59
2024/03/07 01:56:58;;;;;;;46.55;25.08;;;6.60;99.90;;;;;;4156129;28;20034;-59
2024/03/07 01:59:02;;;;;;;51.80;26.47;;;6.60;99.90;;;;;;4154344;28;20055;-58
2024/03/07 02:01:02;;;;;;;51.50;26.67;;;6.50;99.90;;;;;;4158185;28;20042;-59
2024/03/07 02:03:03;;;;;;;47.85;26.67;;;6.40;99.90;;;;;;4160779;28;20125;-60
2024/03/07 02:05:05;;;;;;;50.90;27.45;;;6.40;99.90;;;;;;4160619;28;20090;-60
2024/03/07 02:07:06;;;;;;;50.72;27.13;;;6.40;99.90;;;;;;4150766;28;20046;-59
2024/03/07 02:09:07;;;;;;;53.92;28.23;;;6.30;99.90;;;;;;4157522;28;20045;-59
2024/03/07 02:11:09;;;;;;;53.10;26.80;;;6.30;99.90;;;;;;4156922;28;20041;-59
2024/03/07 02:13:11;;;;;;;51.13;27.48;;;6.30;99.90;;;;;;4155695;28;20041;-59
2024/03/07 02:15:13;;;;;;;46.92;26.65;;;6.30;99.90;;;;;;4156012;28;20397;-60
2024/03/07 02:17:14;;;;;;;;;;;6.30;99.90;;;;;;4158404;28;20371;-59
2024/03/07 02:19:16;;;;;;;70.55;32.10;;;6.20;99.90;;;;;;4154618;28;19920;-59
2024/03/07 02:21:16;;;;;;;56.33;30.02;;;6.10;99.90;;;;;;4154218;28;20064;-60
2024/03/07 02:23:17;;;;;;;54.10;29.52;;;6.10;99.90;;;;;;4154984;28;20109;-72
2024/03/07 02:25:17;;;;;;;63.08;30.20;;;6.00;99.90;;;;;;4153676;28;20516;-70
2024/03/07 02:27:18;;;;;;;56.20;29.75;;;6.00;99.90;;;;;;4151946;28;20448;-72
2024/03/07 02:29:19;;;;;;;53.65;28.48;;;6.00;99.90;;;;;;4157092;28;20051;-72
2024/03/07 02:31:20;;;;;;;54.55;27.67;;;6.00;99.90;;;;;;4142585;28;20030;-72
2024/03/07 02:33:21;;;;;;;54.70;30.25;;;6.00;99.90;;;;;;4153626;28;20064;-72
2024/03/07 02:35:22;;;;;;;62.78;29.42;;;6.00;99.90;;;;;;4149549;28;20042;-72
2024/03/07 02:37:23;;;;;;;50.10;26.85;;;6.00;99.90;;;;;;4156802;28;20034;-72
2024/03/07 02:39:27;;;;;;;51.53;26.77;;;6.10;99.90;;;;;;4154963;28;20073;-73
2024/03/07 02:41:27;;;;;;;45.58;26.10;;;6.10;99.90;;;;;;4155657;28;20437;-72
2024/03/07 02:43:28;;;;;;;48.75;25.60;;;6.20;99.90;;;;;;4151091;28;20041;-72
2024/03/07 02:45:30;;;;;;;46.38;25.92;;;6.20;99.90;;;;;;4157289;28;20363;-72
2024/03/07 02:47:30;;;;;;;44.28;24.95;;;6.20;99.90;;;;;;4156011;28;20038;-72
2024/03/07 02:49:31;;;;;;;44.15;25.25;;;6.20;99.90;;;;;;4157270;28;20045;-72
2024/03/07 02:51:32;;;;;;;46.00;26.13;;;6.30;99.90;;;;;;4150606;28;20076;-73
2024/03/07 02:53:32;;;;;;;51.15;26.67;;;6.30;99.90;;;;;;4153280;28;20037;-72
2024/03/07 02:55:33;;;;;;;54.47;26.58;;;6.30;99.90;;;;;;4151241;28;20049;-73
2024/03/07 02:57:34;;;;;;;47.50;26.38;;;6.30;99.90;;;;;;4152189;28;20116;-73
2024/03/07 02:59:35;;;;;;;56.45;29.55;;;6.20;99.90;;;;;;4153113;28;20038;-73
2024/03/07 03:01:35;;;;;;;55.53;29.25;;;6.10;99.90;;;;;;4154619;28;20548;-72
2024/03/07 03:03:36;;;;;;;56.95;30.38;;;6.10;99.90;;;;;;4155337;28;20038;-73
2024/03/07 03:05:36;;;;;;;53.67;28.88;;;6.00;99.90;;;;;;4152233;28;20042;-73
2024/03/07 03:07:37;;;;;;;52.45;28.33;;;6.00;99.90;;;;;;4150264;28;20446;-73
2024/03/07 03:09:43;;;;;;;61.05;30.63;;;6.00;99.90;;;;;;4158034;28;20049;-73
2024/03/07 03:11:44;;;;;;;58.83;32.38;;;6.00;99.90;;;;;;4149079;28;20092;-73
2024/03/07 03:13:46;;;;;;;61.37;31.70;;;5.90;99.90;;;;;;4144384;28;20096;-73
2024/03/07 03:15:47;;;;;;;59.60;31.83;;;5.90;99.90;;;;;;4156577;28;20195;-72
2024/03/07 03:17:48;;;;;;;51.58;28.95;;;5.80;99.90;;;;;;4156293;28;20045;-72
2024/03/07 03:19:49;;;;;;;59.72;31.60;;;5.80;99.90;;;;;;4154380;28;20490;-72
2024/03/07 03:21:50;;;;;;;61.53;32.15;;;5.80;99.90;;;;;;4150662;28;20622;-72
2024/03/07 03:23:53;;;;;;;51.55;29.50;;;5.70;99.90;;;;;;4146042;28;20042;-73
2024/03/07 03:25:55;;;;;;;55.80;30.15;;;5.70;99.90;;;;;;4152544;28;20566;-72
2024/03/07 03:27:55;;;;;;;53.88;29.75;;;5.70;99.90;;;;;;4146130;28;20110;-70
2024/03/07 03:29:56;;;;;;;58.55;29.85;;;5.70;99.90;;;;;;4149090;28;20084;-72
2024/03/07 03:31:56;;;;;;;54.47;28.83;;;5.70;99.90;;;;;;4146246;28;20033;-73
2024/03/07 03:33:57;;;;;;;55.80;29.05;;;5.70;99.90;;;;;;4149650;28;20037;-72
2024/03/07 03:35:59;;;;;;;54.05;29.25;;;5.70;99.90;;;;;;4149586;28;20041;-72
2024/03/07 03:38:00;;;;;;;52.05;27.55;;;5.80;99.90;;;;;;4160531;28;20120;-72
2024/03/07 03:40:00;;;;;;;49.10;27.98;;;5.70;99.90;;;;;;4155769;28;20107;-73
2024/03/07 03:42:01;;;;;;;47.30;27.00;;;5.70;99.90;;;;;;4152286;28;20441;-59
2024/03/07 03:44:03;;;;;;;51.53;27.40;;;5.70;99.90;;;;;;4154273;28;20124;-73
2024/03/07 03:46:04;;;;;;;46.00;26.13;;;5.80;99.90;;;;;;4138911;28;20033;-72
2024/03/07 03:48:05;;;;;;;49.65;26.40;;;5.80;99.90;;;;;;4135450;28;20038;-72
2024/03/07 03:50:07;;;;;;;48.03;26.70;;;5.80;99.90;;;;;;4138512;28;20391;-74
2024/03/07 03:52:08;;;;;;;48.40;26.85;;;5.80;99.90;;;;;;4138683;28;20033;-72
2024/03/07 03:54:08;;;;;;;45.47;26.23;;;5.80;99.90;;;;;;4139080;28;20360;-73
2024/03/07 03:56:11;;;;;;;47.20;26.45;;;5.80;99.90;;;;;;4134622;28;20121;-72
2024/03/07 03:58:12;;;;;;;49.05;28.02;;;5.80;99.90;;;;;;4141663;28;20482;-73
2024/03/07 04:00:13;;;;;;;49.65;26.35;;;5.80;99.90;;;;;;4151198;28;20041;-73
2024/03/07 04:02:14;;;;;;;49.53;27.48;;;5.80;99.90;;;;;;4152471;28;20030;-72
2024/03/07 04:04:14;;;;;;;51.33;28.55;;;5.80;99.90;;;;;;4157279;28;20395;-73
2024/03/07 04:06:15;;;;;;;56.17;29.98;;;5.70;99.90;;;;;;4151816;28;20552;-72
2024/03/07 04:08:15;;;;;;;49.88;26.40;;;5.60;99.90;;;;;;4139178;28;20139;-74
2024/03/07 04:10:17;;;;;;;43.63;24.65;;;5.70;99.90;;;;;;4148797;28;20099;-72
2024/03/07 04:12:19;;;;;;;43.20;23.47;;;5.70;99.90;;;;;;4152907;28;20116;-71
2024/03/07 04:14:20;;;;;;;51.38;25.20;;;5.70;99.90;;;;;;4145065;28;20509;-73
2024/03/07 04:16:20;;;;;;;49.20;26.38;;;5.70;99.90;;;;;;4157517;28;20042;-67
2024/03/07 04:18:21;;;;;;;45.30;26.42;;;5.70;99.90;;;;;;4155677;28;20172;-71
2024/03/07 04:20:22;;;;;;;47.47;26.05;;;5.70;99.90;;;;;;4152898;28;20069;-72
2024/03/07 04:22:22;;;;;;;48.92;27.15;;;5.70;99.90;;;;;;4155242;28;20034;-72
2024/03/07 04:24:23;;;;;;;46.38;26.42;;;5.60;99.90;;;;;;4150153;28;20045;-73
2024/03/07 04:26:24;;;;;;;48.50;26.67;;;5.60;99.90;;;;;;4150667;28;20033;-72
2024/03/07 04:28:24;;;;;;;49.60;28.45;;;5.50;99.90;;;;;;4156774;28;20486;-72
2024/03/07 04:30:25;;;;;;;53.83;28.65;;;5.50;99.90;;;;;;4148742;28;20030;-73
2024/03/07 04:32:25;;;;;;;54.65;27.75;;;5.40;99.90;;;;;;4152898;28;20117;-72
2024/03/07 04:34:27;;;;;;;51.58;28.42;;;5.40;99.90;;;;;;4154561;28;20030;-72
2024/03/07 04:36:28;;;;;;;47.60;27.05;;;5.30;99.90;;;;;;4147559;28;20034;-72
2024/03/07 04:38:29;;;;;;;50.60;27.35;;;5.40;99.90;;;;;;4153403;28;20029;-72
2024/03/07 04:40:29;;;;;;;46.75;25.65;;;5.40;99.90;;;;;;4155268;28;20040;-73
2024/03/07 04:42:30;;;;;;;49.35;26.10;;;5.40;99.90;;;;;;4156096;28;20033;-73
2024/03/07 04:44:31;;;;;;;47.15;27.48;;;5.40;99.90;;;;;;4152778;28;20044;-73
2024/03/07 04:46:32;;;;;;;43.17;25.77;;;5.40;99.90;;;;;;4146578;28;20037;-72
2024/03/07 04:48:32;;;;;;;50.15;25.95;;;5.40;99.90;;;;;;4147464;28;20076;-73
2024/03/07 04:50:33;;;;;;;43.85;25.08;;;5.40;99.90;;;;;;4154326;28;20253;-73
2024/03/07 04:52:34;;;;;;;43.45;23.58;;;5.40;99.90;;;;;;4156969;28;20040;-73
2024/03/07 04:54:35;;;;;;;43.88;24.85;;;5.40;99.90;;;;;;4153044;28;20478;-72
2024/03/07 04:56:35;;;;;;;44.25;24.83;;;5.40;99.90;;;;;;4155784;28;20066;-72
2024/03/07 04:58:36;;;;;;;46.75;25.80;;;5.40;99.90;;;;;;4155199;28;20470;-72
2024/03/07 05:00:36;;;;;;;46.88;25.73;;;5.40;99.90;;;;;;4150976;28;20037;-73
2024/03/07 05:02:37;;;;;;;47.15;26.38;;;5.40;99.90;;;;;;4148412;28;20046;-60
2024/03/07 05:04:38;;;;;;;45.22;27.15;;;5.40;99.90;;;;;;4151509;28;20120;-59
2024/03/07 05:06:39;;;;;;;51.20;27.30;;;5.30;99.90;;;;;;4150817;28;20437;-66
2024/03/07 05:08:39;;;;;;;54.35;28.83;;;5.30;99.90;;;;;;4153279;28;20053;-73
2024/03/07 05:10:41;;;;;;;51.88;28.40;;;5.30;99.90;;;;;;4155853;28;20045;-73
2024/03/07 05:12:41;;;;;;;51.53;28.30;;;5.30;99.90;;;;;;4157984;28;21108;-73
2024/03/07 05:14:42;;;;;;;50.20;28.60;;;5.20;99.90;;;;;;4156676;28;20119;-73
2024/03/07 05:16:43;;;;;;;49.88;28.35;;;5.20;99.90;;;;;;4154203;28;20049;-73
2024/03/07 05:18:44;;;;;;;53.33;27.88;;;5.20;99.90;;;;;;4155415;28;20116;-73
2024/03/07 05:20:44;;;;;;;61.35;31.23;;;5.10;99.90;;;;;;4153259;28;20174;-73
2024/03/07 05:22:50;;;;;;;58.83;31.38;;;5.10;99.90;;;;;;4155782;28;20398;-73
2024/03/07 05:24:50;;;;;;;58.20;31.10;;;5.00;99.90;;;;;;4157002;28;20038;-72
2024/03/07 05:26:53;;;;;;;56.53;29.88;;;4.90;99.90;;;;;;4157035;28;20052;-72
2024/03/07 05:28:56;;;;;;;53.22;29.95;;;4.90;99.90;;;;;;4157718;28;20160;-73
2024/03/07 05:30:57;;;;;;;54.85;30.58;;;4.90;99.90;;;;;;4157986;28;20560;-72
2024/03/07 05:32:58;;;;;;;52.55;29.17;;;4.80;99.90;;;;;;4154893;28;20042;-73
2024/03/07 05:34:59;;;;;;;54.58;31.83;;;4.80;99.90;;;;;;4157937;28;20073;-72
2024/03/07 05:36:59;;;;;;;52.05;28.42;;;4.80;99.90;;;;;;4150526;28;20033;-73
2024/03/07 05:39:01;;;;;;;58.40;31.70;;;4.80;99.90;;;;;;4154672;28;20042;-73
2024/03/07 05:41:01;;;;;;;51.92;29.83;;;4.80;99.90;;;;;;4151524;28;20176;-73
2024/03/07 05:43:02;;;;;;;57.55;31.23;;;4.70;99.90;;;;;;4158317;28;20490;-85
2024/03/07 05:45:05;;;;;;;55.90;29.75;;;4.70;99.90;;;;;;4150296;28;20034;-83
2024/03/07 05:47:07;;;;;;;50.97;28.88;;;4.80;99.90;;;;;;4149960;28;20588;-85
2024/03/07 05:49:08;;;;;;;51.97;28.30;;;4.70;99.90;;;;;;4151107;28;20052;-85
2024/03/07 05:51:10;;;;;;;50.17;28.05;;;4.80;99.90;;;;;;4152338;28;20068;-85
2024/03/07 05:53:11;;;;;;;44.17;26.33;;;4.80;99.90;;;;;;4146445;28;20034;-85
2024/03/07 05:55:12;;;;;;;59.55;30.05;;;4.80;99.90;;;;;;4137796;28;20038;-85
2024/03/07 05:57:12;;;;;;;50.85;27.75;;;4.80;99.90;;;;;;4155288;28;20041;-85
2024/03/07 05:59:13;;;;;;;49.97;28.27;;;4.80;99.90;;;;;;4156825;28;20041;-84
2024/03/07 06:01:14;;;;;;;48.38;27.30;;;4.80;99.90;;;;;;4171286;28;20040;-84
2024/03/07 06:03:19;;;;;;;46.13;27.45;;;4.80;99.90;;;;;;4156631;28;20494;-86
2024/03/07 06:05:20;;;;;;;51.30;27.40;;;4.90;99.90;;;;;;4153710;28;20041;-86
2024/03/07 06:07:20;;;;;;;49.63;28.65;;;4.80;99.90;;;;;;4157831;28;20057;-85
2024/03/07 06:09:21;;;;;;;44.95;26.08;;;4.80;99.90;;;;;;4150664;28;20525;-85
2024/03/07 06:11:22;;;;;;;46.70;25.98;;;4.80;99.90;;;;;;4155879;28;20037;-86
2024/03/07 06:13:22;;;;;;;49.67;28.55;;;4.90;99.90;;;;;;4160336;28;20045;-64
2024/03/07 06:15:24;;;;;;;52.03;28.98;;;4.90;99.90;;;;;;4155221;28;20033;-64
2024/03/07 06:17:24;;;;;;;44.27;25.73;;;4.90;99.90;;;;;;4131359;28;20045;-64
2024/03/07 06:19:25;;;;;;;45.80;25.83;;;4.90;99.90;;;;;;4155885;28;20431;-65
2024/03/07 06:21:26;;;;;;;49.50;28.65;;;4.90;99.90;;;;;;4157093;28;20039;-65
2024/03/07 06:23:28;;;;;;;49.20;28.30;;;4.90;99.90;;;;;;4154841;28;20044;-64
2024/03/07 06:25:50;;;;;;;50.95;29.85;;;4.80;99.90;;;;;;4153692;28;20038;-64
2024/03/07 06:27:52;;;;;;;58.80;32.75;;;4.80;99.90;;;;;;4154230;28;20033;-64
2024/03/07 06:29:53;;;;;;;53.70;29.92;;;4.80;99.90;;;;;;4156122;28;20049;-64
2024/03/07 06:31:54;;;;;;;59.30;30.38;;;4.70;99.90;;;;;;4149629;28;20046;-64
2024/03/07 06:33:55;;;;;;;58.33;32.08;;;4.70;99.90;;;;;;4148175;28;20140;-64
2024/03/07 06:35:55;;;;;;;58.17;31.67;;;4.70;99.90;;;;;;4152714;28;20041;-64
2024/03/07 06:37:56;;;;;;;57.60;29.90;;;4.70;99.90;;;;;;4148171;28;20150;-64
2024/03/07 06:39:57;;;;;;;54.20;31.05;;;4.70;99.90;;;;;;4154781;28;20124;-64
2024/03/07 06:41:57;;;;;;;51.40;30.55;;;4.60;99.90;;;;;;4139885;28;20037;-64
2024/03/07 06:43:58;;;;;;;55.55;30.60;;;4.60;99.90;;;;;;4140688;28;20037;-64
2024/03/07 06:45:58;;;;;;;51.28;29.67;;;4.60;99.90;;;;;;4166667;28;20518;-64
2024/03/07 06:47:59;;;;;;;52.42;30.38;;;4.60;99.90;;;;;;4141968;28;20161;-64
2024/03/07 06:50:00;;;;;;;58.97;29.40;;;4.60;99.90;;;;;;4154030;28;20536;-64
2024/03/07 06:52:01;;;;;;;54.33;30.50;;;4.60;99.90;;;;;;4157218;28;20053;-64
2024/03/07 06:54:01;;;;;;;52.72;29.40;;;4.70;99.90;;;;;;4142979;28;20050;-64
2024/03/07 06:56:02;;;;;;;55.90;29.23;;;4.70;99.90;;;;;;4150327;28;20124;-64
2024/03/07 06:58:05;;;;;;;52.17;29.52;;;4.80;99.90;;;;;;4152251;28;20466;-64
2024/03/07 07:00:11;;;;;;;54.08;30.90;;;4.80;99.90;;;;;;4140138;28;20111;-64
2024/03/07 07:02:12;;;;;;;53.10;29.17;;;5.10;99.90;;;;;;4128770;28;20133;-65
2024/03/07 07:04:14;;;;;;;49.78;27.90;;;5.40;99.90;;;;;;4154879;28;20501;-64
2024/03/07 07:06:15;;;;;;;50.08;27.95;;;5.70;99.90;;;;;;4153100;28;20067;-64
2024/03/07 07:08:16;;;;;;;50.05;29.27;;;6.00;99.90;;;;;;4153054;28;20042;-64
2024/03/07 07:10:23;;;;;;;56.08;30.70;;;6.20;99.90;;;;;;4152398;28;20060;-64
2024/03/07 07:12:24;;;;;;;46.85;28.13;;;6.30;99.90;;;;;;4155421;28;20335;-64
2024/03/07 07:14:24;;;;;;;48.28;27.52;;;6.60;99.90;;;;;;4150960;28;20796;-64
2024/03/07 07:16:25;;;;;;;49.05;28.48;;;7.00;99.90;;;;;;4150677;28;20060;-64
2024/03/07 07:18:26;;;;;;;46.38;27.15;;;7.00;99.90;;;;;;4156322;28;20579;-64
2024/03/07 07:20:27;;;;;;;50.78;27.35;;;7.30;99.90;;;;;;4152105;28;20057;-64
2024/03/07 07:22:27;;;;;;;45.92;27.00;;;7.50;99.90;;;;;;4154887;28;20049;-65
2024/03/07 07:24:29;;;;;;;48.42;26.38;;;7.60;99.90;;;;;;4154353;28;20044;-66
2024/03/07 07:26:32;;;;;;;46.08;25.83;;;7.80;99.90;;;;;;4169460;28;20131;-65
2024/03/07 07:28:33;;;;;;;40.17;25.63;;;8.00;99.90;;;;;;4152180;28;20061;-65
2024/03/07 07:30:33;;;;;;;42.03;24.02;;;8.10;99.90;;;;;;4166932;28;21074;-65
2024/03/07 07:32:35;;;;;;;40.45;24.10;;;8.30;99.90;;;;;;4155869;28;20508;-65
2024/03/07 07:34:36;;;;;;;41.50;25.00;;;8.20;99.90;;;;;;4155047;28;20052;-65
2024/03/07 07:36:36;;;;;;;41.85;24.70;;;8.40;99.90;;;;;;4155013;28;20498;-65
2024/03/07 07:38:37;;;;;;;42.00;25.23;;;8.10;99.90;;;;;;4155725;28;20030;-66
2024/03/07 07:40:38;;;;;;;39.58;23.48;;;8.30;99.90;;;;;;4150524;28;20025;-65
2024/03/07 07:42:39;;;;;;;43.35;25.25;;;8.60;99.90;;;;;;4150093;28;20052;-65
2024/03/07 07:44:40;;;;;;;40.97;23.83;;;8.40;99.90;;;;;;4154766;28;20038;-65
2024/03/07 07:46:40;;;;;;;39.38;24.63;;;8.50;99.90;;;;;;4152935;28;20101;-65
2024/03/07 07:48:41;;;;;;;41.53;25.63;;;8.50;99.90;;;;;;4156912;28;20049;-65
2024/03/07 07:50:42;;;;;;;44.13;24.63;;;8.40;99.90;;;;;;4151579;28;20520;-65
2024/03/07 07:52:43;;;;;;;42.78;24.08;;;8.30;99.90;;;;;;4154269;28;20167;-65
2024/03/07 07:54:44;;;;;;;40.90;24.60;;;8.30;99.90;;;;;;4153837;28;20605;-65
2024/03/07 07:56:44;;;;;;;43.65;24.63;;;8.40;99.90;;;;;;4151759;28;20175;-65
2024/03/07 07:58:45;;;;;;;39.33;24.60;;;8.40;99.90;;;;;;4131859;28;20081;-65
2024/03/07 08:00:48;;;;;;;45.25;25.75;;;8.50;99.90;;;;;;4154141;28;20048;-65
2024/03/07 08:02:54;;;;;;;38.85;24.27;;;8.40;99.90;;;;;;4155430;28;20606;-65
2024/03/07 08:04:54;;;;;;;41.55;25.65;;;8.50;99.90;;;;;;4154568;28;20037;-65
2024/03/07 08:06:55;;;;;;;43.90;24.42;;;8.30;99.90;;;;;;4154261;28;20118;-65
2024/03/07 08:08:55;;;;;;;40.10;23.23;;;8.10;99.90;;;;;;4155300;28;20073;-65
2024/03/07 08:10:56;;;;;;;37.97;23.05;;;7.90;99.90;;;;;;4148233;28;20601;-65
2024/03/07 08:12:58;;;;;;;38.67;23.15;;;8.00;99.90;;;;;;4154591;28;20077;-65
2024/03/07 08:14:58;;;;;;;35.47;21.63;;;7.90;99.90;;;;;;4153816;28;20034;-65
2024/03/07 08:16:59;;;;;;;37.40;22.17;;;7.90;99.90;;;;;;4153399;28;20505;-65
2024/03/07 08:19:00;;;;;;;35.40;21.15;;;8.00;99.90;;;;;;4152915;28;20077;-65
2024/03/07 08:21:00;;;;;;;34.45;22.05;;;8.20;99.90;;;;;;4152735;28;20116;-65
2024/03/07 08:23:01;;;;;;;33.53;20.98;;;8.20;99.90;;;;;;4153338;28;20045;-65
2024/03/07 08:25:02;;;;;;;38.15;22.52;;;8.40;99.90;;;;;;4153190;28;20049;-66
2024/03/07 08:27:05;;;;;;;33.63;20.83;;;8.40;99.90;;;;;;4152073;28;20046;-65
2024/03/07 08:29:05;;;;;;;33.97;20.30;;;8.40;99.90;;;;;;4153449;28;20045;-65
2024/03/07 08:31:06;;;;;;;35.92;20.60;;;8.40;99.90;;;;;;4151511;28;20045;-65
2024/03/07 08:33:07;;;;;;;30.95;19.95;;;8.60;99.90;;;;;;4154267;28;20079;-59
2024/03/07 08:35:09;;;;;;;34.30;19.88;;;8.70;99.90;;;;;;4136785;28;20486;-60
2024/03/07 08:37:10;;;;;;;34.38;19.75;;;8.70;99.90;;;;;;4156512;28;20049;-59
2024/03/07 08:39:10;;;;;;;33.65;20.48;;;8.70;99.90;;;;;;4152221;28;20049;-59
2024/03/07 08:41:11;;;;;;;31.05;18.58;;;8.80;99.90;;;;;;4153526;28;20042;-59
2024/03/07 08:43:12;;;;;;;35.40;20.65;;;8.90;99.90;;;;;;4153694;28;20042;-60
2024/03/07 08:45:16;;;;;;;28.95;17.98;;;9.00;99.90;;;;;;4154574;28;20375;-60
2024/03/07 08:47:17;;;;;;;28.13;17.77;;;9.20;99.90;;;;;;4154733;28;20083;-59
2024/03/07 08:49:18;;;;;;;31.67;19.23;;;9.40;99.90;;;;;;4154337;28;20088;-59
2024/03/07 08:51:18;;;;;;;34.30;21.05;;;9.40;99.90;;;;;;4153591;28;20030;-60
2024/03/07 08:53:19;;;;;;;30.02;18.48;;;9.20;99.90;;;;;;4154589;28;20402;-59
2024/03/07 08:55:22;;;;;;;30.90;18.38;;;9.50;99.90;;;;;;4152202;28;20068;-59
2024/03/07 08:57:23;;;;;;;29.65;19.60;;;9.70;99.90;;;;;;4153007;28;20049;-59
2024/03/07 08:59:23;;;;;;;32.17;19.63;;;9.70;99.90;;;;;;4157886;28;20631;-59
2024/03/07 09:01:24;;;;;;;32.67;19.67;;;9.70;99.90;;;;;;4156339;28;20679;-59
2024/03/07 09:03:25;;;;;;;29.77;18.83;;;9.60;99.90;;;;;;4157431;28;20148;-59
2024/03/07 09:05:27;;;;;;;31.00;19.50;;;9.80;99.90;;;;;;4158215;28;20065;-59
2024/03/07 09:07:29;;;;;;;29.23;18.05;;;9.80;99.90;;;;;;4156612;28;20520;-59
2024/03/07 09:09:29;;;;;;;31.38;18.98;;;9.90;99.90;;;;;;4158750;28;20453;-59
2024/03/07 09:11:30;;;;;;;33.10;18.75;;;10.10;99.90;;;;;;4156024;28;20025;-59
2024/03/07 09:13:31;;;;;;;30.60;19.00;;;10.10;99.90;;;;;;4159218;28;20560;-59
2024/03/07 09:15:33;;;;;;;30.38;19.48;;;9.90;99.90;;;;;;4156881;28;20525;-59
2024/03/07 09:17:33;;;;;;;28.55;17.75;;;10.10;99.90;;;;;;4156048;28;20049;-59
2024/03/07 09:19:34;;;;;;;36.72;19.85;;;10.30;99.90;;;;;;4157054;28;20061;-59
2024/03/07 09:21:35;;;;;;;30.17;19.38;;;10.20;99.90;;;;;;4155502;28;20044;-59
2024/03/07 09:23:35;;;;;;;29.13;17.77;;;10.20;99.90;;;;;;4158070;28;20108;-59
2024/03/07 09:25:36;;;;;;;26.15;16.88;;;10.20;99.90;;;;;;4157890;28;20383;-59
2024/03/07 09:27:37;;;;;;;31.83;16.95;;;10.20;99.90;;;;;;4158747;28;20083;-58
2024/03/07 09:29:38;;;;;;;36.60;17.55;;;10.30;99.90;;;;;;4155439;28;20518;-58
2024/03/07 09:31:40;;;;;;;25.83;16.15;;;10.30;99.90;;;;;;4156710;28;20172;-59
2024/03/07 09:33:40;;;;;;;28.80;17.67;;;10.50;99.90;;;;;;4157656;28;20037;-59
2024/03/07 09:35:41;;;;;;;31.50;18.08;;;10.60;99.90;;;;;;4156637;28;20033;-59
2024/03/07 09:37:43;;;;;;;29.30;16.90;;;10.50;99.90;;;;;;4157913;28;20053;-59
2024/03/07 09:39:43;;;;;;;32.87;17.80;;;10.50;99.90;;;;;;4157785;28;20037;-59
2024/03/07 09:41:44;;;;;;;29.00;15.18;;;10.50;99.90;;;;;;4135922;28;20498;-59
2024/03/07 09:43:47;;;;;;;25.85;15.13;;;10.60;99.90;;;;;;4159176;28;20041;-70
2024/03/07 09:45:49;;;;;;;29.17;16.70;;;10.70;99.90;;;;;;4156779;28;20045;-70
2024/03/07 09:47:51;;;;;;;28.50;16.75;;;10.70;99.90;;;;;;4158601;28;20041;-70
2024/03/07 09:49:53;;;;;;;25.20;15.18;;;10.70;99.90;;;;;;4148133;28;20050;-69
2024/03/07 09:51:56;;;;;;;21.27;13.80;;;10.90;99.90;;;;;;4166198;28;20113;-69
2024/03/07 09:53:59;;;;;;;21.95;14.05;;;11.00;99.90;;;;;;4157733;28;20195;-69
2024/03/07 09:56:00;;;;;;;22.70;13.23;;;11.00;99.90;;;;;;4156536;28;20160;-70
2024/03/07 09:58:03;;;;;;;23.37;14.07;;;11.10;99.90;;;;;;4158364;28;20080;-70
2024/03/07 10:00:07;;;;;;;25.42;14.77;;;11.10;99.90;;;;;;4156316;28;20064;-70
2024/03/07 10:02:09;;;;;;;25.42;15.07;;;11.30;99.90;;;;;;4156047;28;20038;-70
2024/03/07 10:04:14;;;;;;;23.15;15.10;;;11.30;99.90;;;;;;4155563;28;20426;-70
2024/03/07 10:06:14;;;;;;;25.65;15.07;;;11.40;99.90;;;;;;4155162;28;20110;-70
2024/03/07 10:08:16;;;;;;;25.23;14.50;;;11.40;99.90;;;;;;4155256;28;20064;-70
2024/03/07 10:10:17;;;;;;;23.67;14.55;;;11.30;99.90;;;;;;4155115;28;20049;-70
2024/03/07 10:12:18;;;;;;;27.42;14.98;;;11.50;99.90;;;;;;4155905;28;20052;-70
2024/03/07 10:14:19;;;;;;;25.00;15.73;;;11.40;99.90;;;;;;4157558;28;20466;-69
2024/03/07 10:16:19;;;;;;;23.95;14.80;;;10.90;99.90;;;;;;4144398;28;20042;-69
2024/03/07 10:18:22;;;;;;;25.33;15.13;;;10.80;99.90;;;;;;4142221;28;20050;-70
2024/03/07 10:20:24;;;;;;;24.35;13.45;;;10.70;99.90;;;;;;4138072;28;20127;-69
2024/03/07 10:22:24;;;;;;;24.97;13.90;;;10.70;99.90;;;;;;4151511;28;20067;-69